»·PEaware :: WAT502 KSEA-KPDX

WAT502 :: KSEA-KPDX

FLIGHT INFORMATION

Flight Status: Arrived
Operator:
Walker Air Transport
More flights by this operator :: More flights under this callsign
Pilot: Justin M. (19723)
Aircraft: BOEING 737-800
(B738)
More flights by this aircraft type
Origin: KSEA Seattle-Tacoma Intl
United States
Destination: KPDX Portland Intl
United States
More flights between these airports :: More routes between these airports
Route: SEA7 BUWZO KRATR2
File this flight plan on PilotEdge
Remarks:
Altitude:
(Current/Filed)
19,000ft
Speed:
(Current/Filed)
450kts
Departed: 12-Feb-21 06:49 PM
Arrived: 12-Feb-21 07:23 PM
Distance/Time
Traveled:
112nm/0:34
Distance/Time
To Go:
Arrived

Flight Plot

Page will automatically refresh every two minutes.

Flight plan parsing failed; only flown route is shown


Map Options




Map Legend


Flown Route
Filed Route
Departure Airport
Arrival Airport
Navaid (VOR, NDB)
Fix

Horizontal Profiles

Position Reports

Time Latitude Longitude Heading Altitude Ground
Speed
12-Feb-21 18:32 47.440460 -122.303878 13 436ft 0kts
12-Feb-21 18:33 47.440460 -122.303878 13 436ft 0kts
12-Feb-21 18:34 47.440460 -122.303878 13 436ft 0kts
12-Feb-21 18:35 47.440460 -122.303877 13 436ft 0kts
12-Feb-21 18:36 47.440460 -122.303877 13 436ft 0kts
12-Feb-21 18:37 47.440460 -122.303878 13 436ft 0kts
12-Feb-21 18:38 47.440460 -122.303878 13 436ft 0kts
12-Feb-21 18:39 47.440460 -122.303877 13 436ft 0kts
12-Feb-21 18:40 47.440390 -122.303902 13 436ft 2kts
12-Feb-21 18:41 47.439888 -122.303756 306 436ft 2kts
12-Feb-21 18:42 47.439831 -122.303604 295 436ft 0kts
12-Feb-21 18:43 47.439831 -122.303604 295 436ft 0kts
12-Feb-21 18:44 47.439891 -122.305566 268 436ft 14kts
12-Feb-21 18:45 47.435896 -122.305886 149 436ft 14kts
12-Feb-21 18:46 47.434282 -122.305628 181 436ft 8kts
12-Feb-21 18:47 47.432472 -122.308034 359 436ft 0kts
12-Feb-21 18:48 47.459877 -122.308097 5 862ft 180kts
12-Feb-21 18:49 47.514278 -122.309948 359 3307ft 235kts
12-Feb-21 18:50 47.585709 -122.316572 358 6263ft 269kts
12-Feb-21 18:51 47.661517 -122.320768 14 9402ft 283kts
12-Feb-21 18:52 47.687243 -122.214404 103 10814ft 345kts
12-Feb-21 18:53 47.612160 -122.146306 189 13354ft 351kts
12-Feb-21 18:54 47.514787 -122.170173 197 16087ft 362kts
12-Feb-21 18:55 47.413751 -122.199224 198 18534ft 378kts
12-Feb-21 18:57 47.306633 -122.226853 196 19009ft 396kts
12-Feb-21 18:58 47.198001 -122.252391 196 19009ft 395kts
12-Feb-21 18:59 47.089201 -122.277750 196 19009ft 395kts
12-Feb-21 19:00 46.980690 -122.302982 195 19009ft 396kts
12-Feb-21 19:01 46.869695 -122.308845 187 19008ft 402kts
12-Feb-21 19:02 46.757567 -122.309408 186 18990ft 403kts
12-Feb-21 19:03 46.645876 -122.309509 186 18971ft 389kts
12-Feb-21 19:04 46.538862 -122.309560 187 18972ft 386kts
12-Feb-21 19:05 46.432762 -122.309593 187 18525ft 375kts
12-Feb-21 19:06 46.329373 -122.309625 186 16277ft 368kts
12-Feb-21 19:07 46.230990 -122.325580 203 14043ft 345kts
12-Feb-21 19:08 46.143579 -122.372849 205 11828ft 319kts
12-Feb-21 19:09 46.067388 -122.414884 204 10744ft 273kts
12-Feb-21 19:10 46.000177 -122.450984 203 9941ft 246kts
12-Feb-21 19:11 45.935486 -122.487077 209 8468ft 251kts
12-Feb-21 19:12 45.881432 -122.551246 221 6941ft 251kts
12-Feb-21 19:13 45.830842 -122.618331 219 5598ft 239kts
12-Feb-21 19:13 45.791939 -122.667192 217 5152ft 208kts
12-Feb-21 19:14 45.754521 -122.733496 253 4986ft 222kts
12-Feb-21 19:16 45.742974 -122.826939 209 4345ft 213kts
12-Feb-21 19:16 45.697975 -122.836613 144 3589ft 211kts
12-Feb-21 19:17 45.663672 -122.773732 118 2844ft 185kts
12-Feb-21 19:18 45.641413 -122.716911 121 1960ft 149kts
12-Feb-21 19:19 45.622647 -122.668804 114 960ft 133kts
12-Feb-21 19:20 45.604974 -122.622589 116 445ft 131kts
12-Feb-21 19:21 45.590031 -122.583429 119 26ft 44kts
12-Feb-21 19:22 45.589083 -122.584221 296 26ft 8kts
12-Feb-21 19:23 45.589508 -122.587419 272 26ft 8kts
12-Feb-21 19:24 45.590007 -122.591054 209 26ft 0kts

Navigation Log

Ident Type
Flight plan parsing failed, navigation log unavailable